Time;durP1;ratioP1;P1;durP2;ratioP2;P2;SDS_P1;SDS_P2;PMS_P1;PMS_P2;Temp;Humidity;BMP_temperature;BMP_pressure;BME280_temperature;BME280_humidity;BME280_pressure;Samples;Min_cycle;Max_cycle;Signal;HPM_P1;HPM_P2
2022/10/18 06:42:27;;;;;;;;;20.33;20.33;;;;;-147.49;100.00;58502.75;5755028;24;29110;31
2022/10/18 06:44:52;;;;;;;;;19.33;19.33;;;;;-147.49;100.00;58502.75;4702524;30;28403;-84
2022/10/18 06:47:18;;;;;;;;;19.33;19.33;;;;;-147.49;100.00;58502.75;4706765;30;28558;-83
2022/10/18 06:49:43;;;;;;;;;21.00;21.00;;;;;-147.49;100.00;58502.75;4720810;30;28253;-84
2022/10/18 06:52:08;;;;;;;;;21.33;21.33;;;;;-147.49;100.00;58502.75;4720507;30;28326;-81
2022/10/18 06:54:34;;;;;;;;;24.00;23.00;;;;;-147.49;100.00;58502.75;4719529;30;28491;-82
2022/10/18 06:57:01;;;;;;;;;24.67;24.67;;;;;-147.49;100.00;58502.75;4729582;30;28548;-84
2022/10/18 06:59:27;;;;;;;;;20.67;19.00;;;;;-147.49;100.00;58502.75;4719120;30;28700;-84
2022/10/18 07:01:52;;;;;;;;;17.67;17.67;;;;;-147.49;100.00;58502.75;4716783;30;29948;-84
2022/10/18 07:04:17;;;;;;;;;17.00;17.00;;;;;-147.49;100.00;58502.75;4722235;30;28547;-84
2022/10/18 07:06:43;;;;;;;;;23.67;23.67;;;;;-147.49;100.00;58502.75;4720203;30;28544;-84
2022/10/18 07:09:08;;;;;;;;;20.67;20.00;;;;;-147.49;100.00;58502.75;4721944;30;28608;-84
2022/10/18 07:11:34;;;;;;;;;17.67;17.67;;;;;-147.49;100.00;58502.75;4719625;30;29726;-84
2022/10/18 07:14:02;;;;;;;;;17.00;17.00;;;;;-147.49;100.00;58502.75;4712466;30;28979;-84
2022/10/18 07:16:28;;;;;;;;;15.67;15.67;;;;;-147.49;100.00;58502.75;4720027;30;28412;-84
2022/10/18 07:18:53;;;;;;;;;16.33;16.33;;;;;-147.49;100.00;58502.75;4720340;30;28367;-84
2022/10/18 07:21:23;;;;;;;;;17.00;17.00;;;;;-147.49;100.00;58502.75;4720084;30;28245;-84
2022/10/18 07:23:49;;;;;;;;;15.67;15.67;;;;;-147.49;100.00;58502.75;4720933;30;28426;-84
2022/10/18 07:26:19;;;;;;;;;16.33;16.33;;;;;-147.49;100.00;58502.75;4704544;30;28414;-84
2022/10/18 07:28:48;;;;;;;;;20.67;18.67;;;;;-147.49;100.00;58502.75;4719480;30;28244;-84
2022/10/18 07:31:13;;;;;;;;;15.67;15.67;;;;;-147.49;100.00;58502.75;4721325;30;28865;-84
2022/10/18 07:33:39;;;;;;;;;18.00;18.00;;;;;-147.49;100.00;58502.75;4718750;30;28443;-84
2022/10/18 07:36:07;;;;;;;;;16.33;16.33;;;;;-147.49;100.00;58502.75;4726249;30;28403;-84
2022/10/18 07:38:33;;;;;;;;;17.00;17.00;;;;;-147.49;100.00;58502.75;4721478;30;28570;-84
2022/10/18 07:41:00;;;;;;;;;26.00;22.33;;;;;-147.49;100.00;58502.75;4720636;30;28281;-84
2022/10/18 07:43:26;;;;;;;;;15.67;15.67;;;;;-147.49;100.00;58502.75;4728378;30;29515;-84
2022/10/18 07:45:53;;;;;;;;;21.33;21.33;;;;;-147.49;100.00;58502.75;4736977;30;28536;-84
2022/10/18 07:48:18;;;;;;;;;19.33;18.67;;;;;-147.49;100.00;58502.75;4736097;30;28587;-85
2022/10/18 07:50:44;;;;;;;;;18.67;18.67;;;;;-147.49;100.00;58502.75;4736910;30;29417;-85
2022/10/18 07:53:21;;;;;;;;;18.33;16.00;;;;;-147.49;100.00;58502.75;4737220;30;28402;-87
2022/10/18 07:55:46;;;;;;;;;14.33;14.33;;;;;-147.49;100.00;58502.75;4735510;30;28385;-85
2022/10/18 07:58:12;;;;;;;;;18.00;18.00;;;;;-147.49;100.00;58502.75;4736631;30;28301;-85
2022/10/18 08:00:38;;;;;;;;;17.33;17.33;;;;;-147.49;100.00;58502.75;4736611;30;28310;-85
2022/10/18 08:03:03;;;;;;;;;18.33;18.33;;;;;-147.49;100.00;58502.75;4721179;30;28301;-85
2022/10/18 08:05:29;;;;;;;;;17.67;16.67;;;;;-147.49;100.00;58502.75;4737067;30;28393;-85
2022/10/18 08:07:55;;;;;;;;;18.00;18.00;;;;;-147.49;100.00;58502.75;4734786;30;28549;-84
2022/10/18 08:10:22;;;;;;;;;16.33;16.33;;;;;-147.49;100.00;58502.75;4736411;30;28552;-84
2022/10/18 08:12:48;;;;;;;;;14.00;12.33;;;;;-147.49;100.00;58502.75;4736808;30;28346;-85
2022/10/18 08:15:14;;;;;;;;;16.67;16.67;;;;;-147.49;100.00;58502.75;4720855;30;28381;-85
2022/10/18 08:17:43;;;;;;;;;16.67;16.67;;;;;-147.49;100.00;58502.75;4736934;30;28335;-88
2022/10/18 08:20:09;;;;;;;;;15.67;14.67;;;;;-147.49;100.00;58502.75;4737147;30;28282;-85
2022/10/18 08:22:35;;;;;;;;;16.00;16.00;;;;;-147.49;100.00;58502.75;4735394;30;28833;-85
2022/10/18 08:25:00;;;;;;;;;16.33;16.33;;;;;-147.49;100.00;58502.75;4736319;30;28361;-90
2022/10/18 08:27:25;;;;;;;;;18.00;16.33;;;;;-147.49;100.00;58502.75;4734595;30;28238;-88
2022/10/18 08:29:53;;;;;;;;;14.67;14.33;;;;;20.16;100.00;102132.31;4736443;30;29370;-88
2022/10/18 08:32:19;;;;;;;;;16.00;16.00;;;;;-147.49;100.00;80903.13;4720809;30;28450;-89
2022/10/18 08:34:44;;;;;;;;;18.67;17.33;;;;;-147.49;100.00;58502.75;4755135;30;10096;-89
2022/10/18 08:37:09;;;;;;;;;14.67;14.67;;;;;-147.49;100.00;58502.75;4754759;30;8834;-89
2022/10/18 08:39:37;;;;;;;;;16.67;16.67;;;;;-147.49;100.00;58502.75;4754781;30;8948;-89
2022/10/18 08:42:19;;;;;;;;;13.75;13.75;;;;;-147.49;100.00;58502.75;4754161;30;8808;-89
2022/10/18 08:44:47;;;;;;;;;13.00;13.00;;;;;-147.49;100.00;58502.75;4755035;30;8824;-89
2022/10/18 08:47:20;;;;;;;;;13.50;11.75;;;;;-147.49;100.00;58502.75;4753573;30;8799;-91
2022/10/18 08:50:07;;;;;;;;;;;;;;;;;;;;;
2022/10/18 09:03:24;;;;;;;;;11.50;11.50;;;;;-147.49;100.00;58502.75;4643771;30;8869;-93
